createdAt,value
2019-01-02T00:02:08.680Z,100891.29
2019-01-02T00:04:36.181Z,100891.65
2019-01-02T00:07:03.617Z,100891.94
2019-01-02T00:09:31.089Z,100894.33
2019-01-02T00:11:58.582Z,100891.29
2019-01-02T00:14:26.071Z,100886.94
2019-01-02T00:16:53.551Z,100896.22
2019-01-02T00:21:57.880Z,100895.09
2019-01-02T00:24:25.365Z,100894.09
2019-01-02T00:26:52.813Z,100895.90
2019-01-02T00:29:20.274Z,100896.95
2019-01-02T00:31:47.714Z,100902.34
2019-01-02T00:34:15.198Z,100904.94
2019-01-02T00:36:42.691Z,100902.30
2019-01-02T00:39:10.796Z,100904.30
2019-01-02T00:41:38.274Z,100897.91
2019-01-02T00:44:05.771Z,100900.47
2019-01-02T00:46:33.267Z,100899.91
2019-01-02T00:49:00.741Z,100904.09
2019-01-02T00:51:28.208Z,100896.96
2019-01-02T00:53:55.689Z,100896.80
2019-01-02T00:56:23.107Z,100894.00
2019-01-02T00:58:50.572Z,100901.09
2019-01-02T01:01:18.005Z,100892.69
2019-01-02T01:03:45.466Z,100884.60
2019-01-02T01:06:12.922Z,100890.59
2019-01-02T01:08:40.383Z,100892.50
2019-01-02T01:11:07.817Z,100899.17
2019-01-02T01:13:35.308Z,100906.03
2019-01-02T01:16:02.810Z,100902.78
2019-01-02T01:18:30.883Z,100909.64
2019-01-02T01:20:58.323Z,100909.84
2019-01-02T01:23:25.772Z,100902.48
2019-01-02T01:25:53.214Z,100896.59
2019-01-02T01:28:20.698Z,100901.30
2019-01-02T01:30:48.149Z,100913.45
2019-01-02T01:33:15.626Z,100924.83
2019-01-02T01:35:43.076Z,100917.25
2019-01-02T01:38:10.567Z,100915.09
2019-01-02T01:40:38.036Z,100927.02
2019-01-02T01:43:05.502Z,100932.90
2019-01-02T01:45:32.994Z,100929.38
2019-01-02T01:48:00.442Z,100935.05
2019-01-02T01:50:27.901Z,100933.56
2019-01-02T01:52:55.373Z,100933.59
2019-01-02T01:55:22.847Z,100938.44
2019-01-02T01:57:50.316Z,100926.09
2019-01-02T02:00:17.752Z,100930.38
2019-01-02T02:02:45.194Z,100933.23
2019-01-02T02:05:12.643Z,100922.95
2019-01-02T02:07:40.099Z,100929.28
2019-01-02T02:10:08.979Z,100940.98
2019-01-02T02:12:36.435Z,100942.07
2019-01-02T02:15:03.900Z,100951.45
2019-01-02T02:17:31.366Z,100947.20
2019-01-02T02:19:58.855Z,100948.34
2019-01-02T02:22:26.324Z,100948.16
2019-01-02T02:24:53.805Z,100951.16
2019-01-02T02:27:21.251Z,100961.87
2019-01-02T02:29:48.729Z,100965.05
2019-01-02T02:32:16.190Z,100966.59
2019-01-02T02:34:43.634Z,100961.97
2019-01-02T02:37:11.087Z,100959.02
2019-01-02T02:39:38.523Z,100954.84
2019-01-02T02:42:06.001Z,100961.29
2019-01-02T02:44:33.467Z,100966.13
2019-01-02T02:47:01.982Z,100960.30
2019-01-02T02:49:29.508Z,100956.53
2019-01-02T02:51:56.983Z,100962.63
2019-01-02T02:54:24.447Z,100965.98
2019-01-02T02:56:51.952Z,100971.34
2019-01-02T02:59:19.437Z,100976.50
2019-01-02T03:01:46.914Z,100974.62
2019-01-02T03:04:14.382Z,100977.52
2019-01-02T03:06:41.901Z,100968.56
2019-01-02T03:09:09.375Z,100958.25
2019-01-02T03:11:36.834Z,100960.18
2019-01-02T03:14:04.281Z,100964.20
2019-01-02T03:16:31.764Z,100960.08
2019-01-02T03:18:59.250Z,100959.27
2019-01-02T03:21:26.743Z,100961.44
2019-01-02T03:23:54.220Z,100968.72
2019-01-02T03:26:21.674Z,100968.55
2019-01-02T03:28:49.153Z,100964.20
2019-01-02T03:31:16.623Z,100963.05
2019-01-02T03:33:44.089Z,100957.42
2019-01-02T03:36:11.549Z,100966.17
2019-01-02T03:38:39.091Z,100955.05
2019-01-02T03:41:06.533Z,100965.92
2019-01-02T03:43:33.966Z,100957.02
2019-01-02T03:46:01.451Z,100959.17
2019-01-02T03:48:28.886Z,100958.67
2019-01-02T03:50:56.347Z,100966.22
2019-01-02T03:53:23.843Z,100967.39
2019-01-02T03:55:51.272Z,100963.48
2019-01-02T03:58:18.719Z,100969.20
2019-01-02T04:00:46.168Z,100977.77
2019-01-02T04:03:13.625Z,100978.70
2019-01-02T04:05:41.046Z,100969.59
2019-01-02T04:08:08.483Z,100973.99
2019-01-02T04:10:35.960Z,100976.88
2019-01-02T04:13:03.399Z,100970.43
2019-01-02T04:15:30.878Z,100977.55
2019-01-02T04:17:58.314Z,100969.64
2019-01-02T04:20:25.774Z,100980.38
2019-01-02T04:22:53.198Z,100977.06
2019-01-02T04:25:20.660Z,100979.17
2019-01-02T04:27:48.119Z,100977.08
2019-01-02T04:30:15.578Z,100978.58
2019-01-02T04:32:42.995Z,100978.63
2019-01-02T04:35:11.475Z,100974.52
2019-01-02T04:37:38.996Z,100974.63
2019-01-02T04:40:06.444Z,100978.57
2019-01-02T04:42:33.900Z,100977.17
2019-01-02T04:45:01.356Z,100966.11
2019-01-02T04:47:28.870Z,100971.93
2019-01-02T04:49:56.328Z,100973.76
2019-01-02T04:52:23.813Z,100971.88
2019-01-02T04:54:51.240Z,100975.78
2019-01-02T04:57:19.511Z,100980.80
2019-01-02T04:59:46.948Z,100977.30
2019-01-02T05:02:14.437Z,100981.25
2019-01-02T05:04:41.865Z,100978.66
2019-01-02T05:07:09.320Z,100980.78
2019-01-02T05:09:36.790Z,100985.38
2019-01-02T05:12:04.220Z,100985.71
2019-01-02T05:14:31.662Z,100980.81
2019-01-02T05:16:59.086Z,100977.08
2019-01-02T05:19:26.518Z,100985.13
2019-01-02T05:21:53.945Z,100991.36
2019-01-02T05:24:21.413Z,100990.08
2019-01-02T05:26:48.841Z,100990.62
2019-01-02T05:29:16.294Z,100990.03
2019-01-02T05:31:43.748Z,100989.13
2019-01-02T05:34:11.234Z,100997.61
2019-01-02T05:36:38.659Z,101004.67
2019-01-02T05:39:06.153Z,101017.98
2019-01-02T05:41:33.597Z,101014.09
2019-01-02T05:44:01.062Z,101015.95
2019-01-02T05:46:28.511Z,101021.54
2019-01-02T05:48:55.962Z,101024.06
2019-01-02T05:51:23.389Z,101033.95
2019-01-02T05:53:50.913Z,101030.42
2019-01-02T05:56:19.318Z,101037.16
2019-01-02T05:58:46.870Z,101041.20
2019-01-02T06:01:14.347Z,101047.36
2019-01-02T06:03:41.806Z,101049.52
2019-01-02T06:06:09.266Z,101046.36
2019-01-02T06:08:37.607Z,101051.84
2019-01-02T06:11:05.123Z,101061.39
2019-01-02T06:13:32.560Z,101067.31
2019-01-02T06:16:00.018Z,101063.70
2019-01-02T06:18:27.464Z,101070.59
2019-01-02T06:20:54.919Z,101062.73
2019-01-02T06:23:22.336Z,101082.77
2019-01-02T06:25:49.795Z,101076.44
2019-01-02T06:28:17.238Z,101066.68
2019-01-02T06:30:44.720Z,101079.26
2019-01-02T06:33:12.135Z,101073.02
2019-01-02T06:35:39.599Z,101079.12
2019-01-02T06:38:07.078Z,101067.16
2019-01-02T06:40:34.527Z,101066.19
2019-01-02T06:43:01.991Z,101080.70
2019-01-02T06:45:29.441Z,101084.59
2019-01-02T06:47:56.898Z,101074.33
2019-01-02T06:50:24.344Z,101084.29
2019-01-02T06:52:51.802Z,101087.19
2019-01-02T06:55:19.243Z,101085.19
2019-01-02T06:57:46.698Z,101093.23
2019-01-02T07:00:14.960Z,101086.72
2019-01-02T07:02:42.396Z,101087.97
2019-01-02T07:05:09.841Z,101097.75
2019-01-02T07:07:37.289Z,101098.80
2019-01-02T07:10:04.710Z,101094.48
2019-01-02T07:12:32.182Z,101098.89
2019-01-02T07:14:59.596Z,101098.86
2019-01-02T07:17:27.045Z,101099.74
2019-01-02T07:19:54.513Z,101102.45
2019-01-02T07:22:21.983Z,101104.70
2019-01-02T07:24:49.467Z,101119.20
2019-01-02T07:27:16.902Z,101126.86
2019-01-02T07:29:44.361Z,101132.91
2019-01-02T07:32:11.828Z,101143.70
2019-01-02T07:34:43.634Z,101146.80
2019-01-02T07:37:16.918Z,101151.34
2019-01-02T07:40:00.937Z,101140.81
2019-01-02T07:42:49.946Z,101147.11
2019-01-02T07:45:24.035Z,101152.78
2019-01-02T07:48:00.917Z,101154.00
2019-01-02T07:50:33.902Z,101157.75
2019-01-02T07:53:02.845Z,101164.71
2019-01-02T07:55:36.085Z,101167.14
2019-01-02T07:58:23.416Z,101170.11
2019-01-02T08:01:08.635Z,101173.63
2019-01-02T08:03:51.809Z,101166.70
2019-01-02T08:06:24.222Z,101166.98
2019-01-02T08:09:07.369Z,101176.28
2019-01-02T08:11:54.525Z,101171.62
2019-01-02T08:14:28.730Z,101179.34
2019-01-02T08:17:16.861Z,101180.27
2019-01-02T08:20:06.881Z,101179.57
2019-01-02T08:22:42.875Z,101174.06
2019-01-02T08:25:22.156Z,101166.27
2019-01-02T08:27:59.176Z,101159.23
2019-01-02T08:30:33.013Z,101166.55
2019-01-02T08:33:06.013Z,101175.30
2019-01-02T08:35:51.736Z,101183.22
2019-01-02T08:38:34.668Z,101185.45
2019-01-02T08:41:22.637Z,101185.96
2019-01-02T08:44:05.763Z,101187.28
2019-01-02T08:46:40.689Z,101192.20
2019-01-02T08:49:18.829Z,101193.83
2019-01-02T08:51:46.309Z,101208.72
2019-01-02T08:54:20.528Z,101198.20
2019-01-02T08:56:54.353Z,101198.77
2019-01-02T08:59:44.607Z,101202.45
2019-01-02T09:02:16.673Z,101203.20
2019-01-02T09:04:51.513Z,101211.67
2019-01-02T09:07:37.661Z,101210.80
2019-01-02T09:10:14.600Z,101212.25
2019-01-02T09:12:59.931Z,101221.77
2019-01-02T09:15:31.815Z,101225.52
2019-01-02T09:18:19.860Z,101235.98
2019-01-02T09:21:13.800Z,101242.63
2019-01-02T09:24:02.735Z,101247.65
2019-01-02T09:26:54.575Z,101231.22
2019-01-02T09:29:25.284Z,101234.08
2019-01-02T09:32:13.591Z,101233.39
2019-01-02T09:34:59.612Z,101249.49
2019-01-02T09:37:50.410Z,101251.06
2019-01-02T09:40:20.455Z,101257.08
2019-01-02T09:42:53.909Z,101262.58
2019-01-02T09:45:33.248Z,101262.06
2019-01-02T09:48:08.379Z,101258.73
2019-01-02T09:50:40.668Z,101262.16
2019-01-02T09:53:16.819Z,101269.12
2019-01-02T09:55:45.044Z,101278.03
2019-01-02T09:58:45.956Z,101276.05
2019-01-02T10:01:20.318Z,101280.30
2019-01-02T10:03:47.792Z,101286.58
2019-01-02T10:06:34.867Z,101279.35
2019-01-02T10:09:23.955Z,101282.78
2019-01-02T10:11:55.923Z,101283.20
2019-01-02T10:14:58.021Z,101285.70
2019-01-02T10:17:32.142Z,101285.13
2019-01-02T10:20:05.572Z,101284.81
2019-01-02T10:23:03.308Z,101280.73
2019-01-02T10:25:36.689Z,101278.60
2019-01-02T10:28:13.795Z,101281.23
2019-01-02T10:30:42.612Z,101285.60
2019-01-02T10:33:27.705Z,101281.14
2019-01-02T10:35:59.363Z,101271.72
2019-01-02T10:38:44.192Z,101270.86
2019-01-02T10:41:16.435Z,101270.94
2019-01-02T10:43:44.905Z,101275.09
2019-01-02T10:46:29.066Z,101265.75
2019-01-02T10:49:12.159Z,101268.40
2019-01-02T10:51:51.115Z,101270.19
2019-01-02T10:54:35.119Z,101267.69
2019-01-02T10:57:05.085Z,101272.62
2019-01-02T10:59:39.130Z,101275.73
2019-01-02T11:02:13.149Z,101281.82
2019-01-02T11:04:55.105Z,101272.39
2019-01-02T11:07:28.490Z,101281.89
2019-01-02T11:09:59.590Z,101275.20
2019-01-02T11:12:30.824Z,101275.56
2019-01-02T11:15:17.952Z,101280.05
2019-01-02T11:17:55.648Z,101272.95
2019-01-02T11:20:33.665Z,101271.11
2019-01-02T11:23:09.590Z,101269.29
2019-01-02T11:25:46.327Z,101268.38
2019-01-02T11:28:25.521Z,101272.00
2019-01-02T11:31:04.645Z,101274.23
2019-01-02T11:33:37.447Z,101274.98
2019-01-02T11:36:09.494Z,101275.55
2019-01-02T11:38:57.748Z,101272.33
2019-01-02T11:41:35.904Z,101270.91
2019-01-02T11:44:22.767Z,101268.95
2019-01-02T11:46:50.225Z,101266.12
2019-01-02T11:49:17.663Z,101277.31
2019-01-02T11:51:45.107Z,101273.80
2019-01-02T11:54:12.562Z,101269.14
2019-01-02T11:56:39.983Z,101267.37
2019-01-02T11:59:07.478Z,101277.94
2019-01-02T12:01:34.944Z,101265.54
2019-01-02T12:04:02.401Z,101270.14
2019-01-02T12:06:29.836Z,101278.86
2019-01-02T12:08:57.264Z,101283.94
2019-01-02T12:11:24.721Z,101276.84
2019-01-02T12:13:52.187Z,101278.22
2019-01-02T12:16:19.650Z,101277.77
2019-01-02T12:18:47.130Z,101274.59
2019-01-02T12:21:14.551Z,101272.52
2019-01-02T12:23:42.024Z,101274.79
2019-01-02T12:26:09.681Z,101281.45
2019-01-02T12:28:37.132Z,101278.08
2019-01-02T12:31:04.628Z,101269.26
2019-01-02T12:33:32.075Z,101278.75
2019-01-02T12:35:59.536Z,101279.23
2019-01-02T12:38:26.947Z,101275.30
2019-01-02T12:40:54.387Z,101279.78
2019-01-02T12:43:22.828Z,101270.80
2019-01-02T12:45:50.340Z,101279.11
2019-01-02T12:48:17.773Z,101278.38
2019-01-02T12:50:45.229Z,101287.17
2019-01-02T12:53:12.681Z,101275.41
2019-01-02T12:55:40.135Z,101279.12
2019-01-02T12:58:07.558Z,101276.80
2019-01-02T13:00:35.054Z,101281.63
2019-01-02T13:03:03.433Z,101281.77
2019-01-02T13:05:42.571Z,101280.22
2019-01-02T13:08:30.515Z,101295.28
2019-01-02T13:11:00.745Z,101292.25
2019-01-02T13:13:30.167Z,101296.16
2019-01-02T13:15:59.202Z,101298.11
2019-01-02T13:18:42.215Z,101300.26
2019-01-02T13:21:33.310Z,101293.86
2019-01-02T13:24:04.417Z,101300.88
2019-01-02T13:26:33.377Z,101303.77
2019-01-02T13:29:01.631Z,101302.79
2019-01-02T13:31:39.553Z,101305.40
2019-01-02T13:34:07.881Z,101305.88
2019-01-02T13:36:52.108Z,101309.94
2019-01-02T13:39:31.471Z,101320.62
2019-01-02T13:41:59.038Z,101323.10
2019-01-02T13:44:41.381Z,101319.81
2019-01-02T13:47:17.267Z,101322.38
2019-01-02T13:49:44.725Z,101331.31
2019-01-02T13:52:12.179Z,101329.11
2019-01-02T13:54:39.596Z,101334.42
2019-01-02T13:57:07.316Z,101331.23
2019-01-02T13:59:34.828Z,101340.28
2019-01-02T14:02:02.994Z,101339.56
2019-01-02T14:04:31.112Z,101338.95
2019-01-02T14:06:58.536Z,101338.50
2019-01-02T14:09:26.002Z,101334.17
2019-01-02T14:11:53.442Z,101342.66
2019-01-02T14:14:20.978Z,101347.31
2019-01-02T14:16:48.669Z,101345.68
2019-01-02T14:19:16.269Z,101353.70
2019-01-02T14:21:43.782Z,101355.52
2019-01-02T14:24:12.360Z,101348.80
2019-01-02T14:26:39.899Z,101361.89
2019-01-02T14:29:07.534Z,101361.58
2019-01-02T14:31:38.633Z,101366.41
2019-01-02T14:34:02.653Z,101365.50
2019-01-02T14:36:31.133Z,101372.64
2019-01-02T14:38:58.562Z,101372.75
2019-01-02T14:41:26.012Z,101374.63
2019-01-02T14:43:53.492Z,101374.19
2019-01-02T14:46:20.934Z,101386.30
2019-01-02T14:48:48.366Z,101382.84
2019-01-02T14:51:15.803Z,101388.86
2019-01-02T14:53:43.291Z,101388.17
2019-01-02T14:56:10.752Z,101393.35
2019-01-02T14:58:38.253Z,101389.63
2019-01-02T15:01:05.723Z,101387.65
2019-01-02T15:03:33.179Z,101394.51
2019-01-02T15:06:00.643Z,101392.26
2019-01-02T15:08:28.098Z,101388.79
2019-01-02T15:10:55.544Z,101378.61
2019-01-02T15:13:23.993Z,101385.58
2019-01-02T15:15:51.495Z,101394.36
2019-01-02T15:18:18.932Z,101390.47
2019-01-02T15:20:46.395Z,101387.84
2019-01-02T15:23:13.832Z,101393.34
2019-01-02T15:25:41.285Z,101398.41
2019-01-02T15:28:08.711Z,101400.44
2019-01-02T15:30:36.165Z,101405.66
2019-01-02T15:33:03.627Z,101405.25
2019-01-02T15:35:31.063Z,101402.82
2019-01-02T15:37:58.517Z,101406.25
2019-01-02T15:40:25.979Z,101414.28
2019-01-02T15:42:53.483Z,101416.81
2019-01-02T15:45:20.925Z,101419.48
2019-01-02T15:47:48.433Z,101421.42
2019-01-02T15:50:16.863Z,101422.01
2019-01-02T15:52:44.481Z,101431.32
2019-01-02T15:55:11.954Z,101429.91
2019-01-02T15:57:39.412Z,101439.62
2019-01-02T16:00:06.879Z,101439.41
2019-01-02T16:02:34.533Z,101441.60
2019-01-02T16:05:03.380Z,101447.88
2019-01-02T16:07:30.887Z,101440.39
2019-01-02T16:09:58.335Z,101446.44
2019-01-02T16:12:25.799Z,101454.13
2019-01-02T16:14:53.237Z,101453.14
2019-01-02T16:17:20.688Z,101456.34
2019-01-02T16:19:48.540Z,101461.15
2019-01-02T16:22:16.013Z,101463.94
2019-01-02T16:24:43.453Z,101468.72
2019-01-02T16:27:11.083Z,101479.67
2019-01-02T16:29:38.652Z,101476.34
2019-01-02T16:32:06.776Z,101468.72
2019-01-02T16:34:34.958Z,101467.52
2019-01-02T16:37:02.423Z,101471.49
2019-01-02T16:39:29.856Z,101473.92
2019-01-02T16:41:57.303Z,101475.83
2019-01-02T16:44:25.339Z,101480.71
2019-01-02T16:46:52.828Z,101478.25
2019-01-02T16:49:20.284Z,101478.78
2019-01-02T16:51:49.278Z,101479.91
2019-01-02T16:54:16.980Z,101479.48
2019-01-02T16:56:44.414Z,101481.86
2019-01-02T16:59:11.851Z,101484.22
2019-01-02T17:01:39.289Z,101490.18
2019-01-02T17:04:07.587Z,101492.95
2019-01-02T17:06:35.290Z,101489.44
2019-01-02T17:09:03.804Z,101492.84
2019-01-02T17:11:31.408Z,101491.25
2019-01-02T17:13:58.829Z,101494.16
2019-01-02T17:16:26.308Z,101494.47
2019-01-02T17:18:53.718Z,101488.89
2019-01-02T17:21:21.240Z,101495.94
2019-01-02T17:23:48.744Z,101497.59
2019-01-02T17:26:16.216Z,101495.63
2019-01-02T17:28:43.664Z,101502.41
2019-01-02T17:31:12.098Z,101509.67
2019-01-02T17:33:39.611Z,101509.30
2019-01-02T17:36:07.028Z,101518.27
2019-01-02T17:38:34.483Z,101513.97
2019-01-02T17:41:01.941Z,101502.05
2019-01-02T17:43:29.367Z,101511.52
2019-01-02T17:45:56.830Z,101518.57
2019-01-02T17:48:24.308Z,101519.02
2019-01-02T17:50:51.739Z,101521.64
2019-01-02T17:53:19.185Z,101527.33
2019-01-02T17:55:46.668Z,101530.30
2019-01-02T17:58:14.151Z,101531.67
2019-01-02T18:00:41.564Z,101525.72
2019-01-02T18:03:09.019Z,101524.63
2019-01-02T18:05:36.482Z,101530.65
2019-01-02T18:08:03.927Z,101531.13
2019-01-02T18:10:31.372Z,101535.88
2019-01-02T18:12:58.810Z,101536.66
2019-01-02T18:15:26.262Z,101538.20
2019-01-02T18:17:53.731Z,101547.36
2019-01-02T18:20:21.189Z,101541.05
2019-01-02T18:22:48.624Z,101548.30
2019-01-02T18:25:16.079Z,101552.96
2019-01-02T18:27:45.103Z,101547.14
2019-01-02T18:30:12.625Z,101547.45
2019-01-02T18:32:40.110Z,101544.52
2019-01-02T18:35:07.567Z,101550.11
2019-01-02T18:37:35.029Z,101543.54
2019-01-02T18:40:03.956Z,101546.18
2019-01-02T18:42:31.473Z,101549.31
2019-01-02T18:44:58.910Z,101551.66
2019-01-02T18:47:26.344Z,101551.38
2019-01-02T18:49:53.807Z,101553.94
2019-01-02T18:52:21.333Z,101558.18
2019-01-02T18:54:48.751Z,101569.73
2019-01-02T18:57:16.194Z,101565.14
2019-01-02T18:59:43.630Z,101567.41
2019-01-02T19:02:11.083Z,101567.22
2019-01-02T19:04:38.504Z,101573.22
2019-01-02T19:07:06.081Z,101567.64
2019-01-02T19:09:33.552Z,101567.17
2019-01-02T19:12:01.023Z,101572.79
2019-01-02T19:14:28.540Z,101567.66
2019-01-02T19:16:56.017Z,101569.36
2019-01-02T19:19:23.442Z,101575.38
2019-01-02T19:21:50.906Z,101573.77
2019-01-02T19:24:18.337Z,101574.78
2019-01-02T19:26:45.805Z,101574.95
2019-01-02T19:29:13.240Z,101572.30
2019-01-02T19:31:40.696Z,101575.31
2019-01-02T19:34:08.117Z,101577.37
2019-01-02T19:36:35.570Z,101575.13
2019-01-02T19:39:03.052Z,101577.51
2019-01-02T19:41:31.681Z,101588.88
2019-01-02T19:43:59.126Z,101587.51
2019-01-02T19:46:26.547Z,101586.45
2019-01-02T19:48:54.010Z,101583.97
2019-01-02T19:51:21.511Z,101589.01
2019-01-02T19:53:48.926Z,101580.91
2019-01-02T19:56:16.422Z,101587.48
2019-01-02T19:58:43.856Z,101589.63
2019-01-02T20:01:11.311Z,101584.36
2019-01-02T20:03:38.739Z,101579.41
2019-01-02T20:06:06.164Z,101578.31
2019-01-02T20:08:33.631Z,101577.20
2019-01-02T20:11:01.115Z,101570.26
2019-01-02T20:13:28.568Z,101576.79
2019-01-02T20:15:56.037Z,101575.45
2019-01-02T20:18:23.489Z,101578.09
2019-01-02T20:20:50.950Z,101581.45
2019-01-02T20:23:18.399Z,101576.95
2019-01-02T20:25:45.860Z,101572.39
2019-01-02T20:28:13.889Z,101578.52
2019-01-02T20:30:41.333Z,101579.06
2019-01-02T20:33:08.760Z,101572.73
2019-01-02T20:35:36.258Z,101576.71
2019-01-02T20:38:03.683Z,101575.50
2019-01-02T20:40:31.138Z,101577.67
2019-01-02T20:42:58.756Z,101571.05
2019-01-02T20:45:26.412Z,101567.03
2019-01-02T20:47:53.720Z,101568.00
2019-01-02T20:50:21.419Z,101566.23
2019-01-02T20:52:48.849Z,101562.87
2019-01-02T20:55:16.292Z,101556.85
2019-01-02T20:57:43.737Z,101551.47
2019-01-02T21:00:11.306Z,101548.10
2019-01-02T21:02:40.300Z,101552.34
2019-01-02T21:05:07.830Z,101552.42
2019-01-02T21:07:35.323Z,101554.34
2019-01-02T21:10:02.781Z,101561.55
2019-01-02T21:12:31.148Z,101559.70
2019-01-02T21:14:59.382Z,101553.92
2019-01-02T21:17:26.843Z,101555.10
2019-01-02T21:19:54.259Z,101547.42
2019-01-02T21:22:21.730Z,101554.54
2019-01-02T21:24:49.182Z,101548.64
2019-01-02T21:27:16.701Z,101551.46
2019-01-02T21:29:44.148Z,101550.15
2019-01-02T21:32:11.605Z,101551.98
2019-01-02T21:34:39.025Z,101549.66
2019-01-02T21:37:08.125Z,101549.83
2019-01-02T21:39:35.645Z,101549.73
2019-01-02T21:42:03.095Z,101539.13
2019-01-02T21:44:31.221Z,101544.45
2019-01-02T21:46:58.698Z,101545.63
2019-01-02T21:49:27.047Z,101551.30
2019-01-02T21:51:54.616Z,101542.19
2019-01-02T21:54:22.054Z,101544.08
2019-01-02T21:56:49.497Z,101538.83
2019-01-02T21:59:16.923Z,101548.92
2019-01-02T22:01:44.362Z,101537.05
2019-01-02T22:04:11.798Z,101537.06
2019-01-02T22:06:39.236Z,101534.93
2019-01-02T22:09:06.708Z,101534.16
2019-01-02T22:11:34.233Z,101538.17
2019-01-02T22:14:01.661Z,101538.95
2019-01-02T22:16:29.112Z,101540.49
2019-01-02T22:18:56.541Z,101546.25
2019-01-02T22:21:24.020Z,101543.42
2019-01-02T22:23:52.365Z,101544.69
2019-01-02T22:26:19.907Z,101547.31
2019-01-02T22:28:47.330Z,101543.70
2019-01-02T22:31:14.792Z,101543.08
2019-01-02T22:33:42.271Z,101542.13
2019-01-02T22:36:09.717Z,101538.45
2019-01-02T22:38:37.190Z,101548.58
2019-01-02T22:41:04.637Z,101551.11
2019-01-02T22:43:32.110Z,101540.91
2019-01-02T22:45:59.546Z,101546.91
2019-01-02T22:48:26.981Z,101546.61
2019-01-02T22:50:54.464Z,101555.07
2019-01-02T22:53:21.913Z,101552.03
2019-01-02T22:55:49.338Z,101545.59
2019-01-02T22:58:16.795Z,101546.97
2019-01-02T23:00:55.067Z,101546.50
2019-01-02T23:03:29.576Z,101548.22
2019-01-02T23:05:59.627Z,101543.84
2019-01-02T23:08:37.909Z,101547.20
2019-01-02T23:11:23.143Z,101554.77
2019-01-02T23:13:56.416Z,101557.09
2019-01-02T23:16:27.081Z,101549.31
2019-01-02T23:18:57.079Z,101558.87
2019-01-02T23:21:39.232Z,101554.98
2019-01-02T23:24:11.087Z,101550.19
2019-01-02T23:26:56.281Z,101541.48
2019-01-02T23:29:39.508Z,101554.57
2019-01-02T23:32:25.669Z,101559.13
2019-01-02T23:34:54.507Z,101557.22
2019-01-02T23:37:36.860Z,101558.16
2019-01-02T23:40:14.632Z,101554.12
2019-01-02T23:42:43.022Z,101553.78
2019-01-02T23:45:25.392Z,101554.55
2019-01-02T23:47:53.686Z,101548.41
2019-01-02T23:50:26.638Z,101547.81
2019-01-02T23:53:03.413Z,101554.17
2019-01-02T23:55:38.150Z,101548.87
2019-01-02T23:58:24.265Z,101542.05
